sensor_id;sensor_type;location;lat;lon;timestamp;P1;durP1;ratioP1;P2;durP2;ratioP2
14933;SDS011;7560;51.364;12.384;2023-12-22T00:02:12;9.75;;;1.73;;
14933;SDS011;7560;51.364;12.384;2023-12-22T00:07:13;10.98;;;2.17;;
14933;SDS011;7560;51.364;12.384;2023-12-22T00:12:15;9.27;;;2.47;;
14933;SDS011;7560;51.364;12.384;2023-12-22T00:17:17;11.30;;;2.28;;
14933;SDS011;7560;51.364;12.384;2023-12-22T00:22:19;18.52;;;2.47;;
14933;SDS011;7560;51.364;12.384;2023-12-22T00:27:21;13.23;;;2.83;;
14933;SDS011;7560;51.364;12.384;2023-12-22T00:32:22;16.40;;;2.83;;
14933;SDS011;7560;51.364;12.384;2023-12-22T00:37:24;10.38;;;2.38;;
14933;SDS011;7560;51.364;12.384;2023-12-22T00:42:26;10.77;;;2.35;;
14933;SDS011;7560;51.364;12.384;2023-12-22T00:47:28;14.35;;;2.80;;
14933;SDS011;7560;51.364;12.384;2023-12-22T00:52:30;11.95;;;2.40;;
14933;SDS011;7560;51.364;12.384;2023-12-22T00:57:32;17.50;;;3.25;;
14933;SDS011;7560;51.364;12.384;2023-12-22T01:02:34;12.40;;;2.70;;
14933;SDS011;7560;51.364;12.384;2023-12-22T01:07:36;13.05;;;2.70;;
14933;SDS011;7560;51.364;12.384;2023-12-22T01:12:37;12.55;;;2.20;;
14933;SDS011;7560;51.364;12.384;2023-12-22T01:17:39;13.57;;;2.38;;
14933;SDS011;7560;51.364;12.384;2023-12-22T01:22:41;15.18;;;2.83;;
14933;SDS011;7560;51.364;12.384;2023-12-22T01:27:43;14.43;;;2.63;;
14933;SDS011;7560;51.364;12.384;2023-12-22T01:32:45;13.60;;;2.40;;
14933;SDS011;7560;51.364;12.384;2023-12-22T01:37:47;12.93;;;2.83;;
14933;SDS011;7560;51.364;12.384;2023-12-22T01:42:51;18.25;;;3.40;;
14933;SDS011;7560;51.364;12.384;2023-12-22T01:47:52;16.77;;;2.97;;
14933;SDS011;7560;51.364;12.384;2023-12-22T01:52:55;13.65;;;2.72;;
14933;SDS011;7560;51.364;12.384;2023-12-22T01:57:57;16.33;;;2.78;;
14933;SDS011;7560;51.364;12.384;2023-12-22T02:03:00;13.77;;;2.45;;
14933;SDS011;7560;51.364;12.384;2023-12-22T02:08:03;16.20;;;3.65;;
14933;SDS011;7560;51.364;12.384;2023-12-22T02:13:05;17.52;;;2.55;;
14933;SDS011;7560;51.364;12.384;2023-12-22T02:18:12;11.07;;;2.50;;
14933;SDS011;7560;51.364;12.384;2023-12-22T02:23:19;8.18;;;1.58;;
14933;SDS011;7560;51.364;12.384;2023-12-22T02:28:20;12.30;;;2.38;;
14933;SDS011;7560;51.364;12.384;2023-12-22T02:33:25;10.55;;;2.45;;
14933;SDS011;7560;51.364;12.384;2023-12-22T02:38:30;8.40;;;2.15;;
14933;SDS011;7560;51.364;12.384;2023-12-22T02:43:34;10.88;;;2.53;;
14933;SDS011;7560;51.364;12.384;2023-12-22T02:48:36;17.88;;;3.00;;
14933;SDS011;7560;51.364;12.384;2023-12-22T02:53:38;20.50;;;3.47;;
14933;SDS011;7560;51.364;12.384;2023-12-22T02:58:40;16.00;;;3.47;;
14933;SDS011;7560;51.364;12.384;2023-12-22T03:03:42;15.27;;;2.42;;
14933;SDS011;7560;51.364;12.384;2023-12-22T03:08:44;10.18;;;2.63;;
14933;SDS011;7560;51.364;12.384;2023-12-22T03:13:45;7.28;;;2.10;;
14933;SDS011;7560;51.364;12.384;2023-12-22T03:18:47;11.18;;;2.17;;
14933;SDS011;7560;51.364;12.384;2023-12-22T03:23:49;12.23;;;1.90;;
14933;SDS011;7560;51.364;12.384;2023-12-22T03:28:51;11.35;;;2.67;;
14933;SDS011;7560;51.364;12.384;2023-12-22T03:33:52;8.98;;;2.10;;
14933;SDS011;7560;51.364;12.384;2023-12-22T03:38:54;11.57;;;1.80;;
14933;SDS011;7560;51.364;12.384;2023-12-22T03:43:56;9.90;;;2.08;;
14933;SDS011;7560;51.364;12.384;2023-12-22T03:48:58;9.15;;;1.75;;
14933;SDS011;7560;51.364;12.384;2023-12-22T03:54:00;8.60;;;1.90;;
14933;SDS011;7560;51.364;12.384;2023-12-22T03:59:02;7.65;;;2.30;;
14933;SDS011;7560;51.364;12.384;2023-12-22T04:04:04;8.88;;;1.85;;
14933;SDS011;7560;51.364;12.384;2023-12-22T04:09:06;8.15;;;1.58;;
14933;SDS011;7560;51.364;12.384;2023-12-22T04:14:07;6.93;;;1.27;;
14933;SDS011;7560;51.364;12.384;2023-12-22T04:19:09;3.15;;;1.20;;
14933;SDS011;7560;51.364;12.384;2023-12-22T04:24:12;6.50;;;1.02;;
14933;SDS011;7560;51.364;12.384;2023-12-22T04:29:14;6.32;;;0.80;;
14933;SDS011;7560;51.364;12.384;2023-12-22T04:34:16;5.43;;;0.98;;
14933;SDS011;7560;51.364;12.384;2023-12-22T04:39:18;3.13;;;0.77;;
14933;SDS011;7560;51.364;12.384;2023-12-22T04:44:21;5.03;;;1.02;;
14933;SDS011;7560;51.364;12.384;2023-12-22T04:49:23;4.15;;;0.90;;
14933;SDS011;7560;51.364;12.384;2023-12-22T04:54:24;4.47;;;0.90;;
14933;SDS011;7560;51.364;12.384;2023-12-22T04:59:27;3.75;;;0.98;;
14933;SDS011;7560;51.364;12.384;2023-12-22T05:04:29;3.17;;;1.08;;
14933;SDS011;7560;51.364;12.384;2023-12-22T05:09:30;6.60;;;1.30;;
14933;SDS011;7560;51.364;12.384;2023-12-22T05:14:32;5.70;;;1.23;;
14933;SDS011;7560;51.364;12.384;2023-12-22T05:19:34;2.92;;;1.10;;
14933;SDS011;7560;51.364;12.384;2023-12-22T05:24:36;3.65;;;1.02;;
14933;SDS011;7560;51.364;12.384;2023-12-22T05:29:38;4.93;;;1.20;;
14933;SDS011;7560;51.364;12.384;2023-12-22T05:34:40;7.95;;;1.50;;
14933;SDS011;7560;51.364;12.384;2023-12-22T05:39:42;6.68;;;1.30;;
14933;SDS011;7560;51.364;12.384;2023-12-22T05:44:45;4.05;;;1.67;;
14933;SDS011;7560;51.364;12.384;2023-12-22T05:49:50;8.35;;;1.33;;
14933;SDS011;7560;51.364;12.384;2023-12-22T05:54:52;3.67;;;1.27;;
14933;SDS011;7560;51.364;12.384;2023-12-22T05:59:55;7.07;;;1.33;;
14933;SDS011;7560;51.364;12.384;2023-12-22T06:04:57;9.57;;;1.70;;
14933;SDS011;7560;51.364;12.384;2023-12-22T06:09:59;7.82;;;1.65;;
14933;SDS011;7560;51.364;12.384;2023-12-22T06:15:00;5.25;;;1.17;;
14933;SDS011;7560;51.364;12.384;2023-12-22T06:20:02;7.63;;;1.45;;
14933;SDS011;7560;51.364;12.384;2023-12-22T06:25:05;7.45;;;1.38;;
14933;SDS011;7560;51.364;12.384;2023-12-22T06:30:08;10.57;;;1.88;;
14933;SDS011;7560;51.364;12.384;2023-12-22T06:35:10;4.78;;;1.30;;
14933;SDS011;7560;51.364;12.384;2023-12-22T06:40:17;7.50;;;1.20;;
14933;SDS011;7560;51.364;12.384;2023-12-22T06:45:20;5.70;;;1.27;;
14933;SDS011;7560;51.364;12.384;2023-12-22T06:50:22;7.80;;;1.42;;
14933;SDS011;7560;51.364;12.384;2023-12-22T06:55:23;5.65;;;1.33;;
14933;SDS011;7560;51.364;12.384;2023-12-22T07:00:25;7.15;;;1.60;;
14933;SDS011;7560;51.364;12.384;2023-12-22T07:05:30;9.38;;;1.58;;
14933;SDS011;7560;51.364;12.384;2023-12-22T07:10:33;7.65;;;1.98;;
14933;SDS011;7560;51.364;12.384;2023-12-22T07:15:34;5.95;;;1.50;;
14933;SDS011;7560;51.364;12.384;2023-12-22T07:20:36;8.63;;;1.63;;
14933;SDS011;7560;51.364;12.384;2023-12-22T07:25:39;3.88;;;1.10;;
14933;SDS011;7560;51.364;12.384;2023-12-22T07:30:41;10.10;;;1.92;;
14933;SDS011;7560;51.364;12.384;2023-12-22T07:35:43;11.05;;;1.95;;
14933;SDS011;7560;51.364;12.384;2023-12-22T07:40:46;6.20;;;1.10;;
14933;SDS011;7560;51.364;12.384;2023-12-22T07:45:47;6.95;;;1.35;;
14933;SDS011;7560;51.364;12.384;2023-12-22T07:50:52;7.07;;;1.20;;
14933;SDS011;7560;51.364;12.384;2023-12-22T07:55:55;6.63;;;1.50;;
14933;SDS011;7560;51.364;12.384;2023-12-22T08:00:57;8.63;;;1.55;;
14933;SDS011;7560;51.364;12.384;2023-12-22T08:06:00;6.28;;;1.30;;
14933;SDS011;7560;51.364;12.384;2023-12-22T08:11:02;9.55;;;1.73;;
14933;SDS011;7560;51.364;12.384;2023-12-22T08:16:04;6.45;;;1.15;;
14933;SDS011;7560;51.364;12.384;2023-12-22T08:21:06;3.42;;;0.73;;
14933;SDS011;7560;51.364;12.384;2023-12-22T08:26:21;2.88;;;0.80;;
14933;SDS011;7560;51.364;12.384;2023-12-22T08:31:23;5.40;;;1.25;;
14933;SDS011;7560;51.364;12.384;2023-12-22T08:36:25;5.57;;;1.00;;
14933;SDS011;7560;51.364;12.384;2023-12-22T08:41:27;5.72;;;0.80;;
14933;SDS011;7560;51.364;12.384;2023-12-22T08:46:29;4.03;;;0.70;;
14933;SDS011;7560;51.364;12.384;2023-12-22T08:51:33;4.40;;;0.70;;
14933;SDS011;7560;51.364;12.384;2023-12-22T08:56:35;6.90;;;1.00;;
14933;SDS011;7560;51.364;12.384;2023-12-22T09:01:37;6.28;;;1.38;;
14933;SDS011;7560;51.364;12.384;2023-12-22T09:06:38;2.00;;;0.90;;
14933;SDS011;7560;51.364;12.384;2023-12-22T09:11:40;3.45;;;0.80;;
14933;SDS011;7560;51.364;12.384;2023-12-22T09:16:42;3.03;;;0.80;;
14933;SDS011;7560;51.364;12.384;2023-12-22T09:21:45;1.92;;;0.75;;
14933;SDS011;7560;51.364;12.384;2023-12-22T09:26:47;2.10;;;0.43;;
14933;SDS011;7560;51.364;12.384;2023-12-22T09:31:49;2.70;;;0.50;;
14933;SDS011;7560;51.364;12.384;2023-12-22T09:36:51;2.13;;;0.52;;
14933;SDS011;7560;51.364;12.384;2023-12-22T09:41:53;2.65;;;0.80;;
14933;SDS011;7560;51.364;12.384;2023-12-22T09:46:55;4.28;;;0.80;;
14933;SDS011;7560;51.364;12.384;2023-12-22T09:51:58;3.00;;;0.90;;
14933;SDS011;7560;51.364;12.384;2023-12-22T09:57:03;1.52;;;1.00;;
14933;SDS011;7560;51.364;12.384;2023-12-22T10:02:23;0.50;;;0.45;;
14933;SDS011;7560;51.364;12.384;2023-12-22T10:07:28;1.73;;;0.43;;
14933;SDS011;7560;51.364;12.384;2023-12-22T10:12:31;0.28;;;0.28;;
14933;SDS011;7560;51.364;12.384;2023-12-22T10:17:35;0.88;;;0.40;;
14933;SDS011;7560;51.364;12.384;2023-12-22T10:22:38;1.17;;;0.47;;
14933;SDS011;7560;51.364;12.384;2023-12-22T10:27:41;1.58;;;0.70;;
14933;SDS011;7560;51.364;12.384;2023-12-22T10:32:43;3.00;;;0.60;;
14933;SDS011;7560;51.364;12.384;2023-12-22T10:37:45;4.03;;;0.80;;
14933;SDS011;7560;51.364;12.384;2023-12-22T10:42:49;2.30;;;0.65;;
14933;SDS011;7560;51.364;12.384;2023-12-22T10:47:52;4.10;;;0.90;;
14933;SDS011;7560;51.364;12.384;2023-12-22T10:52:54;2.67;;;1.05;;
14933;SDS011;7560;51.364;12.384;2023-12-22T10:57:57;5.32;;;1.65;;
14933;SDS011;7560;51.364;12.384;2023-12-22T11:03:05;7.18;;;1.52;;
14933;SDS011;7560;51.364;12.384;2023-12-22T11:08:09;4.22;;;1.10;;
14933;SDS011;7560;51.364;12.384;2023-12-22T11:13:13;6.13;;;1.30;;
14933;SDS011;7560;51.364;12.384;2023-12-22T11:18:17;5.25;;;1.55;;
14933;SDS011;7560;51.364;12.384;2023-12-22T11:23:21;4.40;;;1.33;;
14933;SDS011;7560;51.364;12.384;2023-12-22T11:28:24;6.65;;;1.33;;
14933;SDS011;7560;51.364;12.384;2023-12-22T11:33:26;7.28;;;1.70;;
14933;SDS011;7560;51.364;12.384;2023-12-22T11:38:30;8.02;;;1.17;;
14933;SDS011;7560;51.364;12.384;2023-12-22T11:43:35;4.07;;;0.98;;
14933;SDS011;7560;51.364;12.384;2023-12-22T11:48:38;6.68;;;1.33;;
14933;SDS011;7560;51.364;12.384;2023-12-22T11:53:50;7.80;;;1.05;;
14933;SDS011;7560;51.364;12.384;2023-12-22T11:58:52;3.42;;;0.85;;
14933;SDS011;7560;51.364;12.384;2023-12-22T12:03:57;5.78;;;1.80;;
14933;SDS011;7560;51.364;12.384;2023-12-22T12:09:04;5.97;;;1.40;;
14933;SDS011;7560;51.364;12.384;2023-12-22T12:14:09;5.85;;;1.40;;
14933;SDS011;7560;51.364;12.384;2023-12-22T12:19:15;8.93;;;1.45;;
14933;SDS011;7560;51.364;12.384;2023-12-22T12:24:19;12.45;;;2.03;;
14933;SDS011;7560;51.364;12.384;2023-12-22T12:29:21;1.45;;;0.90;;
14933;SDS011;7560;51.364;12.384;2023-12-22T12:34:23;2.33;;;0.77;;
14933;SDS011;7560;51.364;12.384;2023-12-22T12:39:28;1.48;;;0.85;;
14933;SDS011;7560;51.364;12.384;2023-12-22T12:44:32;1.70;;;0.80;;
14933;SDS011;7560;51.364;12.384;2023-12-22T12:49:36;1.65;;;0.77;;
14933;SDS011;7560;51.364;12.384;2023-12-22T12:54:38;2.13;;;0.75;;
14933;SDS011;7560;51.364;12.384;2023-12-22T12:59:40;0.60;;;0.50;;
14933;SDS011;7560;51.364;12.384;2023-12-22T13:04:49;1.48;;;0.63;;
14933;SDS011;7560;51.364;12.384;2023-12-22T13:09:51;1.77;;;0.63;;
14933;SDS011;7560;51.364;12.384;2023-12-22T13:14:55;1.80;;;0.90;;
14933;SDS011;7560;51.364;12.384;2023-12-22T13:20:04;2.55;;;1.00;;
14933;SDS011;7560;51.364;12.384;2023-12-22T13:25:06;2.85;;;1.00;;
14933;SDS011;7560;51.364;12.384;2023-12-22T13:30:09;4.05;;;1.50;;
14933;SDS011;7560;51.364;12.384;2023-12-22T13:35:11;5.68;;;1.17;;
14933;SDS011;7560;51.364;12.384;2023-12-22T13:40:13;4.95;;;1.63;;
14933;SDS011;7560;51.364;12.384;2023-12-22T13:45:16;4.70;;;1.70;;
14933;SDS011;7560;51.364;12.384;2023-12-22T13:50:18;5.80;;;1.70;;
14933;SDS011;7560;51.364;12.384;2023-12-22T13:55:24;4.75;;;1.70;;
14933;SDS011;7560;51.364;12.384;2023-12-22T14:00:27;3.58;;;1.27;;
14933;SDS011;7560;51.364;12.384;2023-12-22T14:05:30;5.00;;;1.70;;
14933;SDS011;7560;51.364;12.384;2023-12-22T14:10:35;5.57;;;1.70;;
14933;SDS011;7560;51.364;12.384;2023-12-22T14:15:37;6.57;;;2.00;;
14933;SDS011;7560;51.364;12.384;2023-12-22T14:20:45;6.22;;;2.78;;
14933;SDS011;7560;51.364;12.384;2023-12-22T14:25:47;8.85;;;2.97;;
14933;SDS011;7560;51.364;12.384;2023-12-22T14:30:49;9.23;;;2.70;;
14933;SDS011;7560;51.364;12.384;2023-12-22T14:35:51;7.47;;;2.17;;
14933;SDS011;7560;51.364;12.384;2023-12-22T14:40:53;10.63;;;2.17;;
14933;SDS011;7560;51.364;12.384;2023-12-22T14:45:55;7.43;;;2.15;;
14933;SDS011;7560;51.364;12.384;2023-12-22T14:50:56;7.32;;;1.58;;
14933;SDS011;7560;51.364;12.384;2023-12-22T14:55:58;6.68;;;2.15;;
14933;SDS011;7560;51.364;12.384;2023-12-22T15:01:00;6.20;;;2.00;;
14933;SDS011;7560;51.364;12.384;2023-12-22T15:06:03;9.07;;;2.55;;
14933;SDS011;7560;51.364;12.384;2023-12-22T15:11:05;7.90;;;2.58;;
14933;SDS011;7560;51.364;12.384;2023-12-22T15:16:08;10.00;;;4.05;;
14933;SDS011;7560;51.364;12.384;2023-12-22T15:21:18;5.50;;;2.75;;
14933;SDS011;7560;51.364;12.384;2023-12-22T15:26:22;7.53;;;2.08;;
14933;SDS011;7560;51.364;12.384;2023-12-22T15:31:24;5.28;;;1.88;;
14933;SDS011;7560;51.364;12.384;2023-12-22T15:36:26;5.53;;;1.90;;
14933;SDS011;7560;51.364;12.384;2023-12-22T15:41:30;5.88;;;1.65;;
14933;SDS011;7560;51.364;12.384;2023-12-22T15:46:32;3.70;;;0.98;;
14933;SDS011;7560;51.364;12.384;2023-12-22T15:51:34;2.90;;;0.75;;
14933;SDS011;7560;51.364;12.384;2023-12-22T15:56:36;3.60;;;0.90;;
14933;SDS011;7560;51.364;12.384;2023-12-22T16:01:44;4.97;;;2.08;;
14933;SDS011;7560;51.364;12.384;2023-12-22T16:06:46;3.20;;;1.10;;
14933;SDS011;7560;51.364;12.384;2023-12-22T16:11:48;3.00;;;0.90;;
14933;SDS011;7560;51.364;12.384;2023-12-22T16:16:53;4.38;;;1.30;;
14933;SDS011;7560;51.364;12.384;2023-12-22T16:21:58;4.10;;;2.08;;
14933;SDS011;7560;51.364;12.384;2023-12-22T16:27:00;2.20;;;1.17;;
14933;SDS011;7560;51.364;12.384;2023-12-22T16:32:02;3.58;;;1.60;;
14933;SDS011;7560;51.364;12.384;2023-12-22T16:37:04;2.65;;;1.23;;
14933;SDS011;7560;51.364;12.384;2023-12-22T16:42:06;9.95;;;3.88;;
14933;SDS011;7560;51.364;12.384;2023-12-22T16:47:09;4.35;;;1.40;;
14933;SDS011;7560;51.364;12.384;2023-12-22T16:52:12;7.50;;;2.95;;
14933;SDS011;7560;51.364;12.384;2023-12-22T16:57:13;2.22;;;1.30;;
14933;SDS011;7560;51.364;12.384;2023-12-22T17:02:15;3.35;;;1.40;;
14933;SDS011;7560;51.364;12.384;2023-12-22T17:07:33;3.60;;;1.88;;
14933;SDS011;7560;51.364;12.384;2023-12-22T17:12:39;4.25;;;1.67;;
14933;SDS011;7560;51.364;12.384;2023-12-22T17:17:41;5.28;;;3.42;;
14933;SDS011;7560;51.364;12.384;2023-12-22T17:22:43;6.30;;;1.98;;
14933;SDS011;7560;51.364;12.384;2023-12-22T17:27:45;1.10;;;1.00;;
14933;SDS011;7560;51.364;12.384;2023-12-22T17:32:48;1.20;;;0.77;;
14933;SDS011;7560;51.364;12.384;2023-12-22T17:37:49;1.40;;;1.27;;
14933;SDS011;7560;51.364;12.384;2023-12-22T17:42:51;1.80;;;1.30;;
14933;SDS011;7560;51.364;12.384;2023-12-22T17:47:53;3.28;;;1.40;;
14933;SDS011;7560;51.364;12.384;2023-12-22T17:52:56;7.22;;;3.15;;
14933;SDS011;7560;51.364;12.384;2023-12-22T17:57:57;3.72;;;2.17;;
14933;SDS011;7560;51.364;12.384;2023-12-22T18:02:59;4.55;;;2.55;;
14933;SDS011;7560;51.364;12.384;2023-12-22T18:08:01;2.63;;;1.38;;
14933;SDS011;7560;51.364;12.384;2023-12-22T18:13:03;4.63;;;3.10;;
14933;SDS011;7560;51.364;12.384;2023-12-22T18:18:05;2.72;;;1.60;;
14933;SDS011;7560;51.364;12.384;2023-12-22T18:23:08;3.15;;;1.92;;
14933;SDS011;7560;51.364;12.384;2023-12-22T18:28:10;1.63;;;1.30;;
14933;SDS011;7560;51.364;12.384;2023-12-22T18:33:12;5.38;;;2.83;;
14933;SDS011;7560;51.364;12.384;2023-12-22T18:38:14;2.30;;;1.75;;
14933;SDS011;7560;51.364;12.384;2023-12-22T18:43:16;7.28;;;3.92;;
14933;SDS011;7560;51.364;12.384;2023-12-22T18:48:18;2.53;;;2.00;;
14933;SDS011;7560;51.364;12.384;2023-12-22T18:53:20;2.05;;;1.70;;
14933;SDS011;7560;51.364;12.384;2023-12-22T18:58:24;1.73;;;1.50;;
14933;SDS011;7560;51.364;12.384;2023-12-22T19:03:30;3.83;;;1.88;;
14933;SDS011;7560;51.364;12.384;2023-12-22T19:08:32;2.25;;;1.45;;
14933;SDS011;7560;51.364;12.384;2023-12-22T19:13:34;1.83;;;1.25;;
14933;SDS011;7560;51.364;12.384;2023-12-22T19:18:37;0.90;;;0.90;;
14933;SDS011;7560;51.364;12.384;2023-12-22T19:23:39;3.30;;;1.92;;
14933;SDS011;7560;51.364;12.384;2023-12-22T19:28:42;3.63;;;2.45;;
14933;SDS011;7560;51.364;12.384;2023-12-22T19:33:43;3.47;;;1.65;;
14933;SDS011;7560;51.364;12.384;2023-12-22T19:38:46;2.17;;;1.70;;
14933;SDS011;7560;51.364;12.384;2023-12-22T19:43:47;2.08;;;1.88;;
14933;SDS011;7560;51.364;12.384;2023-12-22T19:48:49;4.72;;;2.60;;
14933;SDS011;7560;51.364;12.384;2023-12-22T19:53:51;2.65;;;1.92;;
14933;SDS011;7560;51.364;12.384;2023-12-22T19:58:53;3.00;;;1.92;;
14933;SDS011;7560;51.364;12.384;2023-12-22T20:03:55;3.33;;;2.45;;
14933;SDS011;7560;51.364;12.384;2023-12-22T20:08:57;3.13;;;2.30;;
14933;SDS011;7560;51.364;12.384;2023-12-22T20:13:59;2.70;;;2.20;;
14933;SDS011;7560;51.364;12.384;2023-12-22T20:19:01;3.13;;;2.22;;
14933;SDS011;7560;51.364;12.384;2023-12-22T20:24:04;2.50;;;1.67;;
14933;SDS011;7560;51.364;12.384;2023-12-22T20:29:06;1.75;;;1.48;;
14933;SDS011;7560;51.364;12.384;2023-12-22T20:34:10;2.83;;;1.75;;
14933;SDS011;7560;51.364;12.384;2023-12-22T20:39:11;2.28;;;1.30;;
14933;SDS011;7560;51.364;12.384;2023-12-22T20:44:13;1.77;;;1.30;;
14933;SDS011;7560;51.364;12.384;2023-12-22T20:49:15;2.75;;;1.55;;
14933;SDS011;7560;51.364;12.384;2023-12-22T20:54:17;1.33;;;1.20;;
14933;SDS011;7560;51.364;12.384;2023-12-22T20:59:20;1.98;;;1.58;;
14933;SDS011;7560;51.364;12.384;2023-12-22T21:04:21;2.30;;;1.20;;
14933;SDS011;7560;51.364;12.384;2023-12-22T21:09:24;1.35;;;1.23;;
14933;SDS011;7560;51.364;12.384;2023-12-22T21:14:26;1.88;;;1.60;;
14933;SDS011;7560;51.364;12.384;2023-12-22T21:19:29;1.65;;;1.40;;
14933;SDS011;7560;51.364;12.384;2023-12-22T21:24:31;1.90;;;1.30;;
14933;SDS011;7560;51.364;12.384;2023-12-22T21:29:38;2.72;;;1.10;;
14933;SDS011;7560;51.364;12.384;2023-12-22T21:34:40;1.60;;;1.17;;
14933;SDS011;7560;51.364;12.384;2023-12-22T21:39:42;0.85;;;0.85;;
14933;SDS011;7560;51.364;12.384;2023-12-22T21:44:44;1.02;;;0.82;;
14933;SDS011;7560;51.364;12.384;2023-12-22T21:49:46;0.95;;;0.60;;
14933;SDS011;7560;51.364;12.384;2023-12-22T21:54:48;0.60;;;0.60;;
14933;SDS011;7560;51.364;12.384;2023-12-22T21:59:50;0.77;;;0.60;;
14933;SDS011;7560;51.364;12.384;2023-12-22T22:04:52;0.90;;;0.80;;
14933;SDS011;7560;51.364;12.384;2023-12-22T22:09:54;1.13;;;0.75;;
14933;SDS011;7560;51.364;12.384;2023-12-22T22:14:56;0.95;;;0.90;;
14933;SDS011;7560;51.364;12.384;2023-12-22T22:19:58;2.15;;;1.00;;
14933;SDS011;7560;51.364;12.384;2023-12-22T22:25:00;1.38;;;0.70;;
14933;SDS011;7560;51.364;12.384;2023-12-22T22:30:02;1.00;;;0.80;;
14933;SDS011;7560;51.364;12.384;2023-12-22T22:35:04;1.25;;;0.88;;
14933;SDS011;7560;51.364;12.384;2023-12-22T22:40:07;0.90;;;0.80;;
14933;SDS011;7560;51.364;12.384;2023-12-22T22:45:11;1.63;;;0.80;;
14933;SDS011;7560;51.364;12.384;2023-12-22T22:50:13;2.45;;;0.80;;
14933;SDS011;7560;51.364;12.384;2023-12-22T22:55:15;1.25;;;0.80;;
14933;SDS011;7560;51.364;12.384;2023-12-22T23:00:16;0.75;;;0.73;;
14933;SDS011;7560;51.364;12.384;2023-12-22T23:05:28;0.77;;;0.52;;
14933;SDS011;7560;51.364;12.384;2023-12-22T23:10:31;0.52;;;0.52;;
14933;SDS011;7560;51.364;12.384;2023-12-22T23:15:33;1.92;;;0.50;;
14933;SDS011;7560;51.364;12.384;2023-12-22T23:20:35;0.95;;;0.60;;
14933;SDS011;7560;51.364;12.384;2023-12-22T23:25:37;0.82;;;0.70;;
14933;SDS011;7560;51.364;12.384;2023-12-22T23:30:38;3.25;;;1.02;;
14933;SDS011;7560;51.364;12.384;2023-12-22T23:35:42;2.47;;;0.70;;
14933;SDS011;7560;51.364;12.384;2023-12-22T23:40:44;1.80;;;0.65;;
14933;SDS011;7560;51.364;12.384;2023-12-22T23:45:46;1.08;;;0.55;;
14933;SDS011;7560;51.364;12.384;2023-12-22T23:50:47;1.27;;;0.45;;
14933;SDS011;7560;51.364;12.384;2023-12-22T23:55:49;1.92;;;0.55;;
